Time;durP1;ratioP1;P1;durP2;ratioP2;P2;SDS_P1;SDS_P2;PMS_P1;PMS_P2;Temp;Humidity;BMP_temperature;BMP_pressure;BME280_temperature;BME280_humidity;BME280_pressure;Samples;Min_cycle;Max_cycle;Signal;HPM_P1;HPM_P2
2022/12/26 00:01:26;;;;;;;3.13;2.10;;;10.00;99.90;;;;;;5072395;28;20455;-74
2022/12/26 00:03:53;;;;;;;2.83;2.00;;;10.10;92.80;;;;;;5073182;28;20457;-74
2022/12/26 00:06:22;;;;;;;3.03;2.27;;;10.00;99.90;;;;;;5072807;28;20811;-74
2022/12/26 00:08:49;;;;;;;3.50;1.83;;;10.00;99.90;;;;;;5073172;28;20490;-75
2022/12/26 00:11:18;;;;;;;2.20;1.70;;;9.90;1.00;;;;;;5072225;28;20456;-74
2022/12/26 00:13:45;;;;;;;4.13;1.93;;;10.10;1.00;;;;;;5072934;28;20456;-75
2022/12/26 00:16:14;;;;;;;2.60;1.83;;;10.10;99.90;;;;;;5072582;28;20496;-74
2022/12/26 00:18:41;;;;;;;1.43;1.23;;;10.20;1.00;;;;;;5073018;28;20459;-74
2022/12/26 00:21:09;;;;;;;2.30;1.63;;;10.30;1.00;;;;;;5072059;28;20449;-74
2022/12/26 00:23:37;;;;;;;2.50;1.83;;;10.10;1.00;;;;;;5072838;28;20452;-74
2022/12/26 00:26:04;;;;;;;1.70;1.50;;;10.20;1.00;;;;;;5072368;28;20779;-74
2022/12/26 00:28:33;;;;;;;3.13;1.60;;;10.30;1.00;;;;;;5072608;28;20451;-74
2022/12/26 00:31:03;;;;;;;2.10;1.33;;;10.50;1.00;;;;;;5071804;28;20456;-72
2022/12/26 00:33:30;;;;;;;4.07;2.20;;;10.60;99.90;;;;;;5072759;28;20456;-74
2022/12/26 00:36:02;;;;;;;3.40;1.90;;;10.60;99.90;;;;;;5072504;28;21005;-74
2022/12/26 00:38:29;;;;;;;2.47;1.50;;;10.60;99.90;;;;;;5072501;28;20463;-74
2022/12/26 00:40:56;;;;;;;4.63;1.77;;;10.50;1.00;;;;;;5072231;28;20448;-74
2022/12/26 00:43:23;;;;;;;2.50;1.63;;;10.40;99.90;;;;;;5071679;28;20468;-74
2022/12/26 00:45:51;;;;;;;2.97;1.77;;;10.20;1.00;;;;;;5072414;28;20456;-74
2022/12/26 00:48:18;;;;;;;2.60;1.97;;;10.30;1.00;;;;;;5071582;28;20939;-74
2022/12/26 00:50:45;;;;;;;2.50;1.77;;;10.30;1.00;;;;;;5072261;28;20484;-74
2022/12/26 00:53:12;;;;;;;5.60;1.90;;;10.30;99.90;;;;;;5071206;28;20448;-74
2022/12/26 00:55:39;;;;;;;2.90;1.63;;;10.40;1.00;;;;;;5072175;28;20499;-74
2022/12/26 00:58:06;;;;;;;2.00;1.47;;;10.40;1.00;;;;;;5071768;28;20449;-74
2022/12/26 01:00:33;;;;;;;16.67;1.70;;;10.30;99.90;;;;;;5071878;28;20456;-75
2022/12/26 01:03:01;;;;;;;2.50;1.67;;;9.90;1.00;;;;;;5071268;28;20943;-71
2022/12/26 01:05:28;;;;;;;3.50;1.80;;;9.70;1.00;;;;;;5071849;28;20455;-74
2022/12/26 01:07:55;;;;;;;3.30;2.33;;;9.50;1.00;;;;;;5071548;28;20449;-74
2022/12/26 01:10:22;;;;;;;2.33;1.83;;;9.60;99.90;;;;;;5071314;28;20918;-74
2022/12/26 01:12:49;;;;;;;1.90;1.40;;;9.30;1.00;;;;;;5071538;28;20447;-74
2022/12/26 01:15:16;;;;;;;1.80;1.23;;;;;;;;;;5071453;28;20783;-73
2022/12/26 01:17:43;;;;;;;3.23;2.07;;;9.20;1.00;;;;;;5071802;28;20456;-74
2022/12/26 01:20:11;;;;;;;3.10;1.77;;;9.00;1.00;;;;;;5071154;28;20457;-73
2022/12/26 01:22:38;;;;;;;3.03;2.00;;;9.00;1.00;;;;;;5071309;28;20453;-74
2022/12/26 01:25:06;;;;;;;3.17;1.77;;;9.10;1.00;;;;;;5070430;28;20449;-73
2022/12/26 01:27:33;;;;;;;2.50;1.53;;;9.00;1.00;;;;;;5071667;28;20447;-74
2022/12/26 01:30:00;;;;;;;1.80;1.03;;;9.00;1.00;;;;;;5071293;28;20446;-71
2022/12/26 01:32:26;;;;;;;1.33;0.90;;;9.00;1.00;;;;;;5071030;28;20445;-73
2022/12/26 01:34:54;;;;;;;2.27;1.70;;;9.00;1.00;;;;;;5071327;28;20477;-73
2022/12/26 01:37:22;;;;;;;2.30;1.67;;;9.00;1.00;;;;;;5070713;28;20475;-74
2022/12/26 01:39:49;;;;;;;1.57;1.03;;;9.00;1.00;;;;;;5071434;28;20453;-74
2022/12/26 01:42:18;;;;;;;2.43;1.60;;;9.00;1.00;;;;;;5070452;28;20456;-74
2022/12/26 01:45:00;;;;;;;3.17;2.10;;;8.90;1.00;;;;;;5071195;28;20445;-74
2022/12/26 01:47:43;;;;;;;2.20;1.80;;;8.90;1.00;;;;;;5071263;28;20440;-74
2022/12/26 01:50:22;;;;;;;2.10;1.60;;;8.90;1.00;;;;;;5070975;28;20446;-74
2022/12/26 01:52:51;;;;;;;6.27;1.97;;;9.00;1.00;;;;;;5071004;28;20441;-74
2022/12/26 01:55:21;;;;;;;2.53;1.40;;;9.20;1.00;;;;;;5070698;28;20485;-74
2022/12/26 01:57:54;;;;;;;2.40;1.63;;;9.20;1.00;;;;;;5071063;28;20966;-74
2022/12/26 02:00:21;;;;;;;2.90;1.80;;;9.30;1.00;;;;;;5070797;28;20456;-74
2022/12/26 02:05:36;;;;;;;2.57;1.50;;;9.30;1.00;;;;;;5071093;28;20559;-74
2022/12/26 02:08:09;;;;;;;2.00;1.80;;;9.30;1.00;;;;;;5070239;28;20513;-74
2022/12/26 02:10:43;;;;;;;2.50;1.47;;;9.40;99.90;;;;;;5071396;28;20453;-74
2022/12/26 02:13:11;;;;;;;9.70;2.63;;;9.50;99.90;;;;;;5070730;28;20449;-74
2022/12/26 02:15:38;;;;;;;2.33;1.57;;;9.50;99.90;;;;;;5071137;28;20489;-74
2022/12/26 02:18:05;;;;;;;2.20;1.30;;;9.40;99.90;;;;;;5070243;28;20452;-74
2022/12/26 02:20:40;;;;;;;2.67;1.60;;;9.50;99.90;;;;;;5071169;28;20469;-74
2022/12/26 02:23:55;;;;;;;2.27;1.70;;;9.50;99.90;;;;;;5069984;28;20445;-74
2022/12/26 02:26:50;;;;;;;2.80;2.00;;;9.60;99.90;;;;;;5070618;28;21203;-74
2022/12/26 02:30:05;;;;;;;2.30;0.90;;;9.60;99.90;;;;;;5067981;28;20464;-74
2022/12/26 02:33:03;;;;;;;1.97;1.30;;;9.60;99.90;;;;;;5070515;28;20458;-74
2022/12/26 02:35:50;;;;;;;5.93;1.83;;;9.60;99.90;;;;;;5070705;28;20976;-73
2022/12/26 02:38:30;;;;;;;1.60;1.17;;;9.50;99.90;;;;;;5074556;28;20453;-74
2022/12/26 02:41:12;;;;;;;2.60;1.40;;;9.40;1.00;;;;;;5074476;28;20458;-74
2022/12/26 02:43:47;;;;;;;2.87;1.50;;;9.50;99.90;;;;;;5074973;28;20457;-74
2022/12/26 02:49:14;;;;;;;2.03;1.17;;;9.50;99.90;;;;;;5073997;28;20543;-74
2022/12/26 03:14:24;;;;;;;4.00;2.67;;;9.30;1.00;;;;;;5073589;28;20480;-74
2022/12/26 03:19:57;;;;;;;2.43;1.50;;;9.40;1.00;;;;;;5073892;28;20414;-74
2022/12/26 03:22:31;;;;;;;3.77;1.57;;;9.50;1.00;;;;;;5073042;28;20442;-74
2022/12/26 03:27:44;;;;;;;2.47;1.83;;;9.40;1.00;;;;;;5073754;28;20430;-75
2022/12/26 03:32:56;;;;;;;2.60;1.47;;;9.50;1.00;;;;;;5073519;28;20415;-75
2022/12/26 03:35:24;;;;;;;3.70;1.53;;;9.40;1.00;;;;;;5073276;28;20496;-74
2022/12/26 03:37:56;;;;;;;2.33;2.07;;;9.40;1.00;;;;;;5073731;28;21008;-74
2022/12/26 04:20:29;;;;;;;2.47;1.60;;;9.30;8.30;;;;;;5072294;28;20464;-74
2022/12/26 04:45:23;;;;;;;1.80;1.40;;;10.40;1.00;;;;;;5071704;28;20441;-74
2022/12/26 04:50:35;;;;;;;1.37;1.00;;;10.50;1.00;;;;;;5071732;28;20424;-73
2022/12/26 04:53:02;;;;;;;2.33;1.30;;;10.50;99.90;;;;;;5071992;28;20449;-74
2022/12/26 04:55:31;;;;;;;1.23;1.03;;;10.50;1.00;;;;;;5072180;28;20456;-74
2022/12/26 04:57:58;;;;;;;3.93;1.60;;;10.50;99.90;;;;;;5072444;28;20457;-74
2022/12/26 05:00:27;;;;;;;2.13;1.47;;;10.50;1.00;;;;;;5071320;28;20465;-74
2022/12/26 05:11:18;;;;;;;2.40;1.10;;;10.60;99.90;;;;;;5070870;28;20963;-74
2022/12/26 05:13:45;;;;;;;3.60;1.23;;;10.50;1.00;;;;;;5071763;28;20453;-74
2022/12/26 05:30:04;;;;;;;2.50;1.27;;;10.60;1.00;;;;;;5071092;28;20425;-73
2022/12/26 05:35:16;;;;;;;1.80;1.27;;;10.50;99.90;;;;;;5070893;28;20432;-74
2022/12/26 05:37:43;;;;;;;1.83;1.33;;;10.50;1.00;;;;;;5071213;28;20493;-74
2022/12/26 05:40:10;;;;;;;2.27;1.50;;;10.60;1.00;;;;;;5070619;28;20472;-74
2022/12/26 05:42:37;;;;;;;1.43;1.33;;;10.70;1.00;;;;;;5070838;28;20933;-73
2022/12/26 05:45:04;;;;;;;1.80;1.40;;;10.70;1.00;;;;;;5070990;28;20442;-74
2022/12/26 05:47:33;;;;;;;2.03;1.83;;;10.70;99.90;;;;;;5071244;28;20453;-74
2022/12/26 05:50:00;;;;;;;3.60;1.50;;;10.70;1.00;;;;;;5071588;28;20446;-72
2022/12/26 05:52:26;;;;;;;2.80;1.20;;;10.60;1.00;;;;;;5071274;28;20445;-73
2022/12/26 05:54:53;;;;;;;1.73;1.50;;;10.60;90.60;;;;;;5071198;28;20449;-74
2022/12/26 05:57:20;;;;;;;2.20;1.83;;;10.70;1.00;;;;;;5070597;28;21030;-74
2022/12/26 05:59:47;;;;;;;3.03;1.20;;;10.70;5.20;;;;;;5071522;28;20445;-73
2022/12/26 06:02:14;;;;;;;1.47;1.20;;;10.60;99.90;;;;;;5070427;28;20448;-74
2022/12/26 06:04:42;;;;;;;1.50;1.37;;;10.70;99.90;;;;;;5071618;28;20797;-74
2022/12/26 06:07:09;;;;;;;1.87;1.27;;;10.70;1.00;;;;;;5070358;28;20466;-73
2022/12/26 06:09:35;;;;;;;2.37;1.43;;;10.70;1.00;;;;;;5071178;28;20511;-74
2022/12/26 06:12:02;;;;;;;2.00;1.80;;;10.70;99.90;;;;;;5056615;28;20455;-74
2022/12/26 06:14:29;;;;;;;2.07;1.50;;;10.70;76.40;;;;;;5071494;28;20446;-74
2022/12/26 06:16:56;;;;;;;2.67;1.50;;;10.70;1.00;;;;;;5071264;28;20518;-74
2022/12/26 06:19:22;;;;;;;4.83;1.83;;;10.80;1.00;;;;;;5070331;28;20537;-74
2022/12/26 06:21:51;;;;;;;2.87;1.80;;;10.70;1.00;;;;;;5056975;28;20469;-75
2022/12/26 06:24:17;;;;;;;2.00;1.73;;;10.60;1.00;;;;;;5070234;28;20758;-73
2022/12/26 06:26:44;;;;;;;4.13;2.00;;;10.60;1.00;;;;;;5071115;28;20457;-74
2022/12/26 06:29:11;;;;;;;2.30;1.97;;;10.60;1.00;;;;;;5070423;28;20450;-74
2022/12/26 06:31:38;;;;;;;2.23;1.50;;;10.60;99.90;;;;;;5070543;28;20476;-74
2022/12/26 06:34:05;;;;;;;3.17;2.03;;;10.60;99.90;;;;;;5070384;28;20758;-74
2022/12/26 06:36:31;;;;;;;2.20;1.70;;;10.50;99.90;;;;;;5070784;28;21012;-74
2022/12/26 06:39:00;;;;;;;2.80;1.37;;;10.50;99.90;;;;;;5071111;28;20484;-74
2022/12/26 06:41:27;;;;;;;2.60;1.53;;;10.60;99.90;;;;;;5070720;28;20518;-74
2022/12/26 06:43:55;;;;;;;2.03;1.57;;;10.60;99.90;;;;;;5070597;28;20947;-74
2022/12/26 06:46:24;;;;;;;3.70;1.90;;;10.70;99.90;;;;;;5070284;28;20446;-74
2022/12/26 06:48:52;;;;;;;3.70;1.93;;;10.70;1.00;;;;;;5070959;28;20447;-74
2022/12/26 06:51:21;;;;;;;4.17;1.30;;;10.80;1.00;;;;;;5069921;28;20805;-74
2022/12/26 06:53:48;;;;;;;1.43;1.10;;;10.80;1.00;;;;;;5070804;28;20468;-74
2022/12/26 06:56:18;;;;;;;2.80;1.30;;;10.80;1.00;;;;;;5070181;28;20485;-75
2022/12/26 06:58:46;;;;;;;1.60;1.17;;;10.90;1.00;;;;;;5070809;28;20453;-74
2022/12/26 07:01:14;;;;;;;1.43;1.23;;;11.10;99.90;;;;;;5070001;28;20516;-74
2022/12/26 07:03:41;;;;;;;2.70;1.40;;;11.10;99.90;;;;;;5070551;28;20446;-74
2022/12/26 07:06:12;;;;;;;2.37;1.37;;;11.00;99.90;;;;;;5070370;28;20468;-74
2022/12/26 07:08:39;;;;;;;2.80;1.40;;;11.10;1.00;;;;;;5070495;28;20496;-74
2022/12/26 07:11:13;;;;;;;2.47;1.50;;;11.10;99.90;;;;;;5069790;28;20540;-74
2022/12/26 07:13:41;;;;;;;2.43;1.77;;;11.10;99.90;;;;;;5057599;28;20927;-74
2022/12/26 07:16:09;;;;;;;1.87;1.40;;;11.10;1.00;;;;;;5069647;28;20941;-74
2022/12/26 07:18:35;;;;;;;2.10;1.53;;;11.00;1.00;;;;;;5070728;28;20456;-74
2022/12/26 07:21:05;;;;;;;2.97;1.30;;;11.10;99.90;;;;;;5069601;28;20446;-74
2022/12/26 07:23:31;;;;;;;1.60;1.27;;;11.00;1.00;;;;;;5071852;28;20446;-74
2022/12/26 07:25:58;;;;;;;1.43;1.10;;;11.10;99.90;;;;;;5073837;28;20955;-75
2022/12/26 07:28:25;;;;;;;1.47;1.10;;;11.10;99.90;;;;;;5074434;28;20457;-74
2022/12/26 07:30:53;;;;;;;2.47;1.50;;;11.10;99.90;;;;;;5073812;28;20445;-74
2022/12/26 07:33:21;;;;;;;1.50;1.40;;;11.10;99.90;;;;;;5073575;28;20796;-74
2022/12/26 07:35:48;;;;;;;1.93;1.57;;;11.10;99.90;;;;;;5074051;28;20818;-77
2022/12/26 07:38:14;;;;;;;1.30;0.90;;;11.00;1.00;;;;;;5073689;28;20608;-75
2022/12/26 07:40:41;;;;;;;2.07;1.40;;;11.10;1.00;;;;;;5073446;28;20446;-74
2022/12/26 07:43:08;;;;;;;2.20;1.43;;;11.10;1.00;;;;;;5073533;28;20456;-74
2022/12/26 07:45:35;;;;;;;2.73;1.90;;;11.10;99.90;;;;;;5073962;28;20456;-74
2022/12/26 07:48:03;;;;;;;2.40;1.53;;;11.20;99.90;;;;;;5073444;28;20832;-74
2022/12/26 07:50:30;;;;;;;1.70;1.33;;;11.10;99.90;;;;;;5073491;28;20453;-74
2022/12/26 07:52:59;;;;;;;1.93;1.03;;;11.10;99.90;;;;;;5073997;28;20441;-76
2022/12/26 07:55:26;;;;;;;2.53;1.43;;;11.10;1.00;;;;;;5073561;28;20460;-76
2022/12/26 07:57:53;;;;;;;2.70;1.73;;;11.10;30.00;;;;;;5073766;28;20488;-75
2022/12/26 08:00:22;;;;;;;2.50;1.63;;;11.10;99.90;;;;;;5072736;28;20460;-75
2022/12/26 08:02:50;;;;;;;2.33;1.63;;;11.00;1.00;;;;;;5074108;28;20461;-76
2022/12/26 08:05:19;;;;;;;3.40;1.40;;;11.00;1.00;;;;;;5073853;28;20453;-75
2022/12/26 08:07:47;;;;;;;2.10;1.30;;;11.00;99.90;;;;;;5073828;28;20555;-75
2022/12/26 08:10:14;;;;;;;7.33;2.03;;;11.00;1.00;;;;;;5073442;28;20996;-75
2022/12/26 08:12:40;;;;;;;4.77;2.00;;;10.90;1.00;;;;;;5077845;28;20453;-75
2022/12/26 08:15:09;;;;;;;3.17;1.63;;;10.90;99.90;;;;;;5079504;28;20444;-74
2022/12/26 08:17:36;;;;;;;1.83;1.60;;;11.10;90.20;;;;;;5080804;28;20477;-75
2022/12/26 08:20:03;;;;;;;3.03;1.80;;;11.00;1.00;;;;;;5082153;28;20452;-74
2022/12/26 08:22:31;;;;;;;1.60;1.10;;;11.00;99.90;;;;;;5083427;28;20461;-73
2022/12/26 08:24:58;;;;;;;3.00;1.90;;;11.00;99.90;;;;;;5070253;28;20451;-75
2022/12/26 08:27:25;;;;;;;2.83;2.10;;;10.90;99.90;;;;;;5084126;28;20461;-74
2022/12/26 08:29:52;;;;;;;1.47;1.37;;;10.80;1.00;;;;;;5081868;28;20453;-75
2022/12/26 08:32:18;;;;;;;2.10;1.90;;;10.90;1.00;;;;;;5074071;28;20529;-75
2022/12/26 08:34:45;;;;;;;2.73;1.60;;;10.90;1.00;;;;;;5073650;28;20457;-75
2022/12/26 08:37:12;;;;;;;2.23;1.77;;;10.90;1.00;;;;;;5073496;28;20497;-75
2022/12/26 08:39:40;;;;;;;5.00;2.03;;;10.80;1.00;;;;;;5074111;28;20457;-75
2022/12/26 08:42:07;;;;;;;3.13;2.40;;;10.80;1.00;;;;;;5072162;28;20444;-74
2022/12/26 08:44:34;;;;;;;1.93;1.57;;;10.80;1.00;;;;;;5073215;28;20453;-74
2022/12/26 08:47:01;;;;;;;2.03;1.60;;;10.80;1.00;;;;;;5072221;28;20457;-74
2022/12/26 08:49:28;;;;;;;2.30;1.57;;;10.60;27.10;;;;;;5073079;28;20455;-75
2022/12/26 08:51:55;;;;;;;2.87;2.10;;;10.60;59.20;;;;;;5072483;28;20453;-75
2022/12/26 08:54:21;;;;;;;2.90;1.63;;;10.70;82.40;;;;;;5072095;28;20539;-75
2022/12/26 08:56:49;;;;;;;2.90;1.90;;;10.70;83.50;;;;;;5072532;28;20492;-74
2022/12/26 08:59:16;;;;;;;2.50;2.20;;;10.70;54.90;;;;;;5071938;28;20456;-74
2022/12/26 09:01:43;;;;;;;2.30;1.67;;;10.80;37.50;;;;;;5071844;28;20484;-74
2022/12/26 09:04:10;;;;;;;5.37;2.17;;;10.80;35.70;;;;;;5072023;28;20460;-74
2022/12/26 09:06:39;;;;;;;2.20;2.00;;;10.70;35.40;;;;;;5072498;28;20442;-75
2022/12/26 09:09:07;;;;;;;2.40;1.77;;;10.70;92.90;;;;;;5071182;28;20840;-74
2022/12/26 09:11:34;;;;;;;3.87;1.40;;;10.70;99.90;;;;;;5071676;28;20804;-74
2022/12/26 09:14:03;;;;;;;3.70;2.57;;;10.60;99.90;;;;;;5071512;28;20454;-74
2022/12/26 09:16:34;;;;;;;2.47;1.73;;;10.70;99.90;;;;;;5071873;28;20462;-74
2022/12/26 09:19:03;;;;;;;4.20;2.93;;;10.80;99.90;;;;;;5071862;28;20757;-74
2022/12/26 09:21:30;;;;;;;2.90;2.00;;;10.80;99.90;;;;;;5071512;28;20544;-74
2022/12/26 09:23:58;;;;;;;4.57;1.67;;;10.80;99.90;;;;;;5072357;28;20457;-75
2022/12/26 09:26:25;;;;;;;3.47;2.03;;;10.90;99.90;;;;;;5071994;28;20537;-75
2022/12/26 09:28:52;;;;;;;4.00;1.80;;;10.90;99.90;;;;;;5071774;28;20464;-74
2022/12/26 09:31:22;;;;;;;3.37;1.93;;;10.90;99.90;;;;;;5070899;28;20799;-74
2022/12/26 09:33:49;;;;;;;2.47;1.77;;;11.00;99.90;;;;;;5071922;28;20460;-75
2022/12/26 09:36:17;;;;;;;4.30;2.07;;;11.00;99.90;;;;;;5070987;28;20967;-75
2022/12/26 09:38:45;;;;;;;2.77;2.20;;;11.00;99.90;;;;;;5071792;28;20504;-75
2022/12/26 09:41:32;;;;;;;3.40;2.87;;;10.90;99.90;;;;;;5070720;28;20461;-74
2022/12/26 09:44:06;;;;;;;4.17;2.80;;;10.90;99.90;;;;;;5071900;28;20769;-75
2022/12/26 09:46:42;;;;;;;4.10;2.87;;;10.90;99.90;;;;;;5071431;28;20456;-75
2022/12/26 09:49:13;;;;;;;4.30;2.93;;;10.80;99.90;;;;;;5071086;28;20804;-75
2022/12/26 09:51:42;;;;;;;3.20;2.63;;;10.80;99.90;;;;;;5071209;28;20460;-74
2022/12/26 09:54:18;;;;;;;5.30;2.40;;;10.70;99.90;;;;;;5070709;28;20453;-75
2022/12/26 09:56:46;;;;;;;3.93;2.20;;;10.80;99.90;;;;;;5071334;28;20785;-75
2022/12/26 09:59:16;;;;;;;2.07;1.63;;;10.80;99.90;;;;;;5071011;28;20449;-74
2022/12/26 10:01:47;;;;;;;9.47;3.40;;;10.70;99.90;;;;;;5070924;28;20456;-74
2022/12/26 10:04:22;;;;;;;3.80;2.30;;;10.90;99.90;;;;;;5071014;28;20775;-74
2022/12/26 10:06:56;;;;;;;3.00;1.73;;;10.80;99.90;;;;;;5071376;28;20441;-74
2022/12/26 10:09:42;;;;;;;2.53;1.63;;;10.70;99.90;;;;;;5070425;28;21006;-75
2022/12/26 10:12:26;;;;;;;2.77;1.93;;;10.70;99.90;;;;;;5070456;28;20509;-76
2022/12/26 10:14:56;;;;;;;1.87;1.60;;;10.70;99.90;;;;;;5071407;28;20458;-76
2022/12/26 10:17:31;;;;;;;2.40;1.67;;;10.70;99.90;;;;;;5070704;28;20491;-76
2022/12/26 10:20:22;;;;;;;3.90;1.60;;;10.60;99.90;;;;;;5070775;28;20452;-76
2022/12/26 10:23:12;;;;;;;2.70;1.97;;;10.60;99.90;;;;;;5070975;28;20966;-76
2022/12/26 10:25:43;;;;;;;4.37;1.97;;;10.60;99.90;;;;;;5071167;28;20448;-76
2022/12/26 10:28:17;;;;;;;3.00;2.10;;;10.60;99.90;;;;;;5058144;28;20791;-77
2022/12/26 10:30:46;;;;;;;2.27;2.03;;;10.60;99.90;;;;;;5070596;28;20436;-77
2022/12/26 10:33:20;;;;;;;3.63;2.13;;;10.60;99.90;;;;;;5070402;28;20456;-77
2022/12/26 10:35:48;;;;;;;3.33;2.10;;;10.60;99.90;;;;;;5070908;28;20921;-77
2022/12/26 10:38:21;;;;;;;2.53;1.67;;;10.70;99.90;;;;;;5070578;28;20486;-77
2022/12/26 10:40:52;;;;;;;2.33;1.73;;;10.50;99.90;;;;;;5070262;28;20947;-77
2022/12/26 10:43:27;;;;;;;4.10;2.40;;;10.50;99.90;;;;;;5070769;28;20451;-77
2022/12/26 10:46:13;;;;;;;4.23;1.60;;;10.50;99.90;;;;;;5071070;28;20508;-77
2022/12/26 10:48:41;;;;;;;2.50;1.80;;;10.50;99.90;;;;;;5069400;28;20472;-77
2022/12/26 10:51:10;;;;;;;2.83;2.07;;;10.60;99.90;;;;;;5069967;28;20466;-77
2022/12/26 10:53:41;;;;;;;1.93;1.73;;;10.60;99.90;;;;;;5071024;28;20458;-77
2022/12/26 10:56:08;;;;;;;3.70;1.90;;;10.70;99.90;;;;;;5070155;28;20453;-77
2022/12/26 10:58:37;;;;;;;2.87;1.53;;;10.70;99.90;;;;;;5072223;28;20492;-76
2022/12/26 11:01:29;;;;;;;3.73;1.70;;;10.80;99.90;;;;;;5074031;28;20474;-75
2022/12/26 11:03:59;;;;;;;3.53;1.93;;;10.80;99.90;;;;;;5075162;28;20448;-77
2022/12/26 11:06:31;;;;;;;2.93;1.93;;;10.90;99.90;;;;;;5074891;28;20446;-77
2022/12/26 11:09:00;;;;;;;4.40;2.17;;;10.80;99.90;;;;;;5074906;28;20830;-77
2022/12/26 11:11:44;;;;;;;2.60;2.40;;;10.90;99.90;;;;;;5073786;28;20940;-77
2022/12/26 11:14:30;;;;;;;3.43;2.07;;;10.90;99.90;;;;;;5073867;28;20440;-77
2022/12/26 11:16:59;;;;;;;5.83;2.60;;;10.90;99.90;;;;;;5074515;28;20448;-77
2022/12/26 11:19:29;;;;;;;2.23;1.10;;;10.90;99.90;;;;;;5074459;28;20488;-76
2022/12/26 11:22:24;;;;;;;2.00;1.50;;;10.90;99.90;;;;;;5073994;28;20445;-76
2022/12/26 11:25:15;;;;;;;3.13;1.17;;;10.90;99.90;;;;;;5073980;28;20959;-77
2022/12/26 11:27:44;;;;;;;2.10;1.20;;;10.90;99.90;;;;;;5074251;28;20459;-77
2022/12/26 11:30:18;;;;;;;2.30;1.13;;;11.00;99.90;;;;;;5073398;28;20449;-76
2022/12/26 11:32:49;;;;;;;2.13;1.27;;;11.00;99.90;;;;;;5074154;28;20486;-76
2022/12/26 11:35:22;;;;;;;1.07;0.87;;;11.00;99.90;;;;;;5073716;28;20452;-75
2022/12/26 11:37:54;;;;;;;2.47;1.33;;;11.00;99.90;;;;;;5073833;28;20928;-75
2022/12/26 11:40:24;;;;;;;1.70;1.00;;;11.00;99.90;;;;;;5073123;28;20451;-76
2022/12/26 11:42:54;;;;;;;0.97;0.77;;;11.10;99.90;;;;;;5074153;28;20450;-75
2022/12/26 11:45:25;;;;;;;1.77;1.20;;;11.00;99.90;;;;;;5073094;28;20448;-75
2022/12/26 11:47:53;;;;;;;1.50;0.80;;;11.00;99.90;;;;;;5074077;28;20470;-75
2022/12/26 11:50:25;;;;;;;1.77;1.03;;;11.00;99.90;;;;;;5072877;28;20457;-75
2022/12/26 11:53:03;;;;;;;2.47;1.47;;;11.00;99.90;;;;;;5073914;28;20454;-75
2022/12/26 11:55:32;;;;;;;1.20;0.80;;;11.00;99.90;;;;;;5073557;28;20806;-74
2022/12/26 11:58:05;;;;;;;1.10;0.67;;;11.00;99.90;;;;;;5073636;28;20513;-75
2022/12/26 12:00:33;;;;;;;1.00;0.67;;;11.00;99.90;;;;;;5073004;28;20720;-75
2022/12/26 12:03:00;;;;;;;1.63;0.80;;;11.00;99.90;;;;;;5073208;28;20805;-73
2022/12/26 12:05:43;;;;;;;1.53;0.80;;;11.10;99.90;;;;;;5060208;28;20447;-75
2022/12/26 12:08:30;;;;;;;1.33;0.77;;;11.10;99.90;;;;;;5072996;28;20452;-75
2022/12/26 12:11:27;;;;;;;2.27;0.90;;;11.20;99.90;;;;;;5072909;28;20444;-76
2022/12/26 12:14:14;;;;;;;1.20;0.77;;;11.20;99.90;;;;;;5062769;28;20922;-75
2022/12/26 12:16:59;;;;;;;1.33;0.83;;;11.30;99.90;;;;;;5073493;28;20477;-75
2022/12/26 12:19:56;;;;;;;1.03;0.60;;;11.30;99.90;;;;;;5073580;28;20468;-75
2022/12/26 12:22:46;;;;;;;2.17;0.97;;;11.30;96.10;;;;;;5063978;28;20964;-75
2022/12/26 12:25:39;;;;;;;1.53;1.07;;;11.30;93.10;;;;;;5072495;28;20460;-75
2022/12/26 12:28:19;;;;;;;3.37;1.13;;;11.30;65.20;;;;;;5058345;28;20461;-75
2022/12/26 12:30:54;;;;;;;1.00;0.73;;;11.40;80.40;;;;;;5072783;28;20452;-75
2022/12/26 12:33:31;;;;;;;1.50;1.20;;;11.40;90.90;;;;;;5072532;28;20437;-75
2022/12/26 12:36:08;;;;;;;1.83;0.60;;;11.50;58.00;;;;;;5073009;28;20968;-75
2022/12/26 12:38:48;;;;;;;1.60;1.10;;;11.50;49.90;;;;;;5072871;28;20493;-74
2022/12/26 12:41:30;;;;;;;1.57;1.03;;;11.50;39.80;;;;;;5059233;28;20943;-75
2022/12/26 12:44:04;;;;;;;2.60;0.90;;;11.50;49.60;;;;;;5073034;28;20446;-75
2022/12/26 12:46:41;;;;;;;0.90;0.70;;;11.40;28.50;;;;;;5073048;28;20453;-75
2022/12/26 12:49:27;;;;;;;1.90;0.87;;;11.40;30.30;;;;;;5072361;28;20453;-75
2022/12/26 12:52:05;;;;;;;1.47;1.13;;;11.40;14.60;;;;;;5072696;28;20453;-75
2022/12/26 12:54:50;;;;;;;0.80;0.60;;;11.50;29.90;;;;;;5072900;28;20463;-75
2022/12/26 12:57:25;;;;;;;1.20;0.60;;;11.50;1.00;;;;;;5071966;28;20456;-75
2022/12/26 13:00:03;;;;;;;0.80;0.53;;;11.50;1.00;;;;;;5072113;28;20477;-75
2022/12/26 13:02:38;;;;;;;1.00;0.70;;;11.50;1.00;;;;;;5072505;28;20448;-74
2022/12/26 13:05:16;;;;;;;1.00;0.70;;;11.50;1.00;;;;;;5071772;28;20455;-75
2022/12/26 13:07:48;;;;;;;1.00;0.70;;;11.50;1.00;;;;;;5072540;28;20465;-75
2022/12/26 13:10:20;;;;;;;0.80;0.53;;;11.50;1.00;;;;;;5070788;28;20847;-77
2022/12/26 13:12:49;;;;;;;0.90;0.50;;;11.40;1.00;;;;;;5072313;28;20445;-73
2022/12/26 13:15:27;;;;;;;1.00;0.60;;;11.50;1.00;;;;;;5058438;28;20453;-74
2022/12/26 13:17:59;;;;;;;1.20;0.60;;;11.50;1.00;;;;;;5072066;28;20452;-74
2022/12/26 13:20:34;;;;;;;0.80;0.67;;;11.50;1.00;;;;;;5071121;28;20533;-74
2022/12/26 13:26:04;;;;;;;1.97;0.70;;;11.50;1.00;;;;;;5071696;28;20432;-74
2022/12/26 13:28:36;;;;;;;1.57;0.77;;;11.50;1.00;;;;;;5071835;28;20449;-74
2022/12/26 13:31:03;;;;;;;1.00;0.63;;;11.50;1.00;;;;;;5070733;28;20789;-73
2022/12/26 13:33:31;;;;;;;0.80;0.50;;;11.50;1.00;;;;;;5072113;28;20555;-74
2022/12/26 13:35:59;;;;;;;0.90;0.70;;;11.40;1.00;;;;;;5071969;28;20461;-75
2022/12/26 13:39:03;;;;;;;1.00;0.67;;;11.40;1.00;;;;;;5071948;28;20499;-75
2022/12/26 13:44:26;;;;;;;1.00;0.63;;;11.50;1.00;;;;;;5070958;28;20499;-74
2022/12/26 13:46:58;;;;;;;1.23;0.97;;;11.40;1.00;;;;;;5071716;28;20457;-74
2022/12/26 13:49:34;;;;;;;0.90;0.73;;;11.50;1.00;;;;;;5071968;28;20461;-74
2022/12/26 13:52:35;;;;;;;0.80;0.50;;;11.40;1.00;;;;;;5071132;28;20809;-74
2022/12/26 13:55:43;;;;;;;1.20;0.60;;;11.40;1.00;;;;;;5071358;28;20441;-74
2022/12/26 13:58:35;;;;;;;1.13;0.83;;;11.40;1.00;;;;;;5028555;28;20519;-74
2022/12/26 14:01:09;;;;;;;4.57;0.70;;;11.30;1.00;;;;;;5028343;28;20842;-74
2022/12/26 14:04:06;;;;;;;1.03;0.63;;;11.30;1.00;;;;;;5059205;28;20805;-74
2022/12/26 14:07:00;;;;;;;1.13;0.80;;;11.30;1.00;;;;;;5070895;28;20452;-74
2022/12/26 14:10:08;;;;;;;1.50;0.67;;;11.30;1.00;;;;;;5071554;28;20473;-74
2022/12/26 14:12:54;;;;;;;1.03;0.70;;;11.30;1.00;;;;;;5029656;28;20443;-74
2022/12/26 14:15:35;;;;;;;0.90;0.60;;;11.30;1.00;;;;;;5060277;28;20480;-74
2022/12/26 14:18:15;;;;;;;0.97;0.70;;;11.30;1.00;;;;;;5078222;28;20929;-74
2022/12/26 14:20:47;;;;;;;1.47;0.77;;;11.20;1.00;;;;;;5082920;28;20429;-74
2022/12/26 14:23:36;;;;;;;1.20;0.63;;;11.20;1.00;;;;;;5083924;28;20440;-74
2022/12/26 14:26:11;;;;;;;1.00;0.80;;;11.30;1.00;;;;;;5085129;28;20977;-73
2022/12/26 14:28:52;;;;;;;1.20;0.77;;;11.30;1.00;;;;;;5086352;28;20540;-74
2022/12/26 14:31:29;;;;;;;1.53;0.70;;;11.30;1.00;;;;;;5086729;28;20763;-75
2022/12/26 14:34:01;;;;;;;1.70;1.20;;;11.30;1.00;;;;;;5087092;28;20448;-75
2022/12/26 14:36:38;;;;;;;1.10;0.77;;;11.20;6.70;;;;;;5080516;28;20790;-74
2022/12/26 14:39:17;;;;;;;1.13;0.73;;;11.20;27.00;;;;;;5077049;28;20489;-73
2022/12/26 14:45:34;;;;;;;1.00;0.60;;;11.20;21.10;;;;;;5074724;28;20927;-73
2022/12/26 14:48:02;;;;;;;1.73;1.10;;;11.20;11.10;;;;;;5074761;28;20456;-73
2022/12/26 14:50:39;;;;;;;1.50;0.70;;;11.20;31.70;;;;;;5074462;28;20453;-73
2022/12/26 14:53:30;;;;;;;1.87;1.60;;;11.20;11.00;;;;;;5074621;28;20525;-73
2022/12/26 14:55:58;;;;;;;1.40;0.80;;;11.10;28.90;;;;;;5074663;28;20921;-73
2022/12/26 14:58:39;;;;;;;1.00;0.70;;;11.10;27.60;;;;;;5074771;28;20450;-73
2022/12/26 15:01:46;;;;;;;1.07;0.67;;;11.10;43.50;;;;;;5073943;28;20452;-74
2022/12/26 15:04:48;;;;;;;0.80;0.63;;;11.10;35.30;;;;;;5074104;28;20446;-73
2022/12/26 15:07:52;;;;;;;1.03;0.70;;;11.00;26.80;;;;;;5073881;28;20453;-74
2022/12/26 15:10:48;;;;;;;1.00;0.70;;;11.00;48.60;;;;;;5060707;28;20721;-74
2022/12/26 15:13:46;;;;;;;1.30;0.60;;;11.00;55.60;;;;;;5074066;28;20449;-74
2022/12/26 15:16:29;;;;;;;2.00;0.73;;;11.00;50.20;;;;;;5070895;28;20465;-74
2022/12/26 15:19:34;;;;;;;1.00;0.60;;;11.00;32.90;;;;;;5074544;28;20485;-74
2022/12/26 15:22:35;;;;;;;1.20;0.80;;;11.00;29.30;;;;;;5074000;28;20456;-73
2022/12/26 15:25:39;;;;;;;1.60;1.10;;;10.90;46.50;;;;;;5074203;28;20517;-74
2022/12/26 15:28:36;;;;;;;1.17;0.80;;;10.90;42.00;;;;;;5060643;28;20498;-73
2022/12/26 15:31:32;;;;;;;2.83;0.90;;;10.90;36.70;;;;;;5072949;28;20449;-74
2022/12/26 15:34:05;;;;;;;0.90;0.60;;;10.90;65.70;;;;;;5074181;28;20448;-74
2022/12/26 15:36:43;;;;;;;1.07;0.80;;;10.80;58.20;;;;;;5074523;28;20445;-74
2022/12/26 15:39:20;;;;;;;1.17;0.70;;;10.80;54.00;;;;;;5073693;28;20492;-74
2022/12/26 15:41:50;;;;;;;1.33;0.70;;;10.80;49.50;;;;;;5073591;28;20449;-74